Estación municipal de Cànoves i Samalús (Vallès Oriental, P.N.del Montseny)

Consulta los datos en tiempo real de la estación municipal de Cànoves i Samalús





Hora UTC 12:15
Temperatura 30.9 ºC
Humedad 43.4 %
Presión 1020.8 hPa
Pluja 0.0 mm
Velocidad viento 13.2 km/h
Dirección viento SSE
Radiación solar 768.3 W/m²

Webcam

Datos diarios 2026-09-02



Hora UTC (invierno +1h; verano +2h)
Temperatura (ºC) Humedad (%) Presión (hPa) Velocidad viento (km/h) Precipitación (mm) Radiación solar (W/m²)
Hora UTC Aire Humedad Presión Vel. Dir. Vel. Max Dir. Intent. máx 5 min. Rad. Sol.
00:05 19.6 87.9 1020.0 2.8 NNW 2.8 NNW 0.0 0.1
00:10 19.6 88.2 1020.0 2.6 NNW 3.9 N 0.0 0.1
00:15 19.6 88.2 1020.0 2.7 NNW 3.9 N 0.0 0.1
00:20 19.5 88.4 1020.0 3.0 NNW 4.2 NNW 0.0 0.1
00:25 19.5 88.7 1019.9 2.7 NNW 4.2 NNW 0.0 0.1
00:30 19.6 89.0 1020.0 1.3 NNW 2.8 NNW 0.0 0.1
00:35 19.5 89.0 1019.9 2.2 NNW 3.5 NNW 0.0 0.1
00:40 19.4 88.8 1019.9 3.8 NNW 4.9 NNW 0.0 0.1
00:45 19.4 89.4 1019.9 3.2 NW 4.2 NNW 0.0 0.1
00:50 19.4 89.8 1019.9 3.6 NNW 4.9 NNW 0.0 0.1
00:55 19.4 89.8 1019.9 4.0 NNW 4.6 NNW 0.0 0.1
01:00 19.4 90.2 1020.0 3.0 NNW 4.6 NNW 0.0 0.1
01:05 19.5 90.4 1019.9 2.9 NW 3.9 NNW 0.0 0.1
01:10 19.4 90.3 1019.9 3.7 NNW 5.3 NNW 0.0 0.1
01:15 19.4 90.3 1019.8 3.3 NNW 4.9 N 0.0 0.1
01:20 19.3 90.2 1019.7 2.8 N 5.3 N 0.0 0.1
01:25 19.2 90.3 1019.6 1.8 NNW 3.5 NNW 0.0 0.1
01:30 19.2 90.6 1019.6 2.4 NNW 3.2 NNW 0.0 0.1
01:35 19.3 91.0 1019.6 0.8 WNW 2.1 WNW 0.0 0.1
01:40 19.3 91.0 1019.5 0.6 NW 2.1 NNW 0.0 0.1
01:45 19.3 91.1 1019.5 1.1 WNW 2.5 WNW 0.0 0.1
01:50 19.3 91.3 1019.5 2.4 NW 3.5 NW 0.0 0.1
01:55 19.3 91.3 1019.5 3.4 NW 4.2 WNW 0.0 0.1
02:00 19.3 91.4 1019.4 2.8 NNW 4.2 NNW 0.0 0.1
02:05 19.4 91.4 1019.5 2.8 NW 4.2 NNW 0.0 0.1
02:10 19.3 91.2 1019.5 3.2 NW 4.2 NNW 0.0 0.1
02:15 19.4 91.2 1019.5 2.8 NW 3.9 WNW 0.0 0.1
02:20 19.3 90.9 1019.5 4.0 NNW 4.9 NNW 0.0 0.1
02:25 19.3 91.0 1019.6 4.0 NNW 5.3 NNW 0.0 0.1
02:30 19.3 90.8 1019.5 2.4 NW 3.9 NNW 0.0 0.1
02:35 19.2 90.9 1019.4 3.1 NNW 5.3 NNW 0.0 0.1
02:40 19.2 90.8 1019.4 4.3 NW 6.4 NW 0.0 0.1
02:45 19.2 90.5 1019.4 4.1 NW 7.1 NNW 0.0 0.1
02:50 19.2 90.1 1019.3 4.2 NW 8.8 NNW 0.0 0.1
02:55 19.3 89.8 1019.3 4.2 NW 9.5 N 0.0 0.1
03:00 19.4 89.2 1019.3 5.4 NW 10.9 NNW 0.0 0.1
03:05 19.6 87.9 1019.3 4.8 NW 8.8 NW 0.0 0.1
03:10 19.8 86.9 1019.3 6.0 NW 9.9 NW 0.0 0.1
03:15 20.0 85.9 1019.3 6.6 NW 10.6 WNW 0.0 0.1
03:20 20.3 84.1 1019.4 5.9 WNW 9.9 NW 0.0 0.1
03:25 20.5 82.6 1019.4 4.6 NW 8.8 WNW 0.0 0.1
03:30 20.5 81.6 1019.3 1.0 SSE 3.5 S 0.0 0.1
03:35 20.4 82.0 1019.3 2.9 SSE 4.6 S 0.0 0.1
03:40 20.1 82.2 1019.3 1.6 NNE 3.2 ENE 0.0 0.1
03:45 19.9 82.9 1019.3 3.3 NW 8.1 NNW 0.0 0.1
03:50 19.9 83.3 1019.2 3.1 WNW 13.8 NNW 0.0 0.1
03:55 19.9 83.1 1019.3 1.7 NNW 7.8 N 0.0 0.1
04:00 19.8 82.4 1019.2 2.3 N 7.8 NNW 0.0 0.1
04:05 19.8 81.5 1019.2 2.5 NNW 8.1 NNW 0.0 0.1
04:10 20.0 80.3 1019.1 2.1 N 7.8 N 0.0 0.1
04:15 20.1 79.0 1019.1 3.2 N 9.9 NW 0.0 0.1
04:20 20.2 77.9 1019.1 3.9 N 9.9 NNW 0.0 0.1
04:25 20.5 76.4 1019.0 3.2 N 9.2 N 0.0 0.1
04:30 20.5 75.5 1019.0 1.7 N 7.8 NE 0.0 0.1
04:35 20.5 75.2 1019.0 3.1 N 6.0 NNE 0.0 0.1
04:40 20.4 75.5 1019.0 2.8 NNW 6.0 0.0 0.1
04:45 20.3 75.7 1019.0 3.3 N 10.2 NNW 0.0 0.1
04:50 20.4 75.1 1019.0 2.2 NNW 8.5 NNW 0.0 0.1
04:55 20.4 75.0 1019.0 4.7 NNW 9.9 NNW 0.0 0.2
05:00 20.5 74.1 1019.1 3.3 N 8.1 NNE 0.0 0.5
05:05 20.5 73.8 1019.2 1.8 N 6.7 NNE 0.0 1.1
05:10 20.4 74.4 1019.2 2.4 NNE 9.5 NNE 0.0 2.1
05:15 20.3 74.6 1019.2 3.7 N 12.4 N 0.0 3.4
05:20 20.3 74.4 1019.3 3.2 N 8.8 NNE 0.0 5.3
05:25 20.4 74.3 1019.3 4.2 N 9.2 N 0.0 7.7
05:30 20.3 74.5 1019.4 2.7 NW 6.0 NNW 0.0 10.4
05:35 20.2 75.1 1019.4 3.6 NNW 7.1 NNW 0.0 13.4
05:40 20.1 75.2 1019.4 4.9 NNW 9.5 NW 0.0 16.2
05:45 20.1 75.0 1019.4 3.9 NW 6.7 NNW 0.0 19.3
05:50 20.2 74.7 1019.4 2.9 NW 5.6 NNW 0.0 22.2
05:55 20.2 74.8 1019.5 3.4 NW 7.8 NNE 0.0 25.7
06:00 20.3 74.1 1019.6 3.6 NNW 6.7 NNW 0.0 27.3
06:05 20.5 73.4 1019.6 2.6 NNE 7.1 SW 0.0 29.1
06:10 20.9 71.8 1019.6 3.3 N 6.0 NNE 0.0 30.6
06:15 21.0 70.9 1019.7 1.7 N 6.0 NNW 0.0 32.0
06:20 21.2 70.5 1019.7 3.1 N 6.4 NNE 0.0 33.3
06:25 21.4 69.5 1019.8 4.1 N 8.5 N 0.0 34.8
06:30 21.7 68.4 1019.8 3.2 NNW 6.0 NNW 0.0 37.2
06:35 21.9 68.1 1019.9 2.2 N 4.6 NNW 0.0 36.9
06:40 22.1 68.0 1020.0 3.3 N 6.0 NNW 0.0 38.0
06:45 22.3 67.9 1020.1 4.5 N 6.7 NNW 0.0 39.1
06:50 22.5 67.3 1020.1 4.1 N 6.4 NNW 0.0 40.1
06:55 22.8 65.7 1020.2 3.2 N 6.0 NW 0.0 42.3
07:00 23.2 64.4 1020.2 3.2 N 6.4 N 0.0 42.0
07:05 23.5 64.0 1020.2 3.0 N 5.3 NNE 0.0 42.9
07:10 23.9 63.1 1020.2 2.6 N 4.9 N 0.0 43.4
07:15 24.1 62.9 1020.2 1.4 NNE 4.6 NNW 0.0 44.2
07:20 24.3 63.1 1020.2 0.3 ESE 2.5 ESE 0.0 76.1
07:25 24.6 60.8 1020.2 2.0 ESE 4.2 ESE 0.0 46.5
07:30 25.2 59.0 1020.2 4.3 SSE 7.8 S 0.0 78.2
07:35 25.8 57.4 1020.2 5.1 SE 8.8 ESE 0.0 123.3
07:40 26.2 56.6 1020.2 4.6 ESE 9.5 SE 0.0 72.4
07:45 26.4 56.2 1020.2 5.4 ESE 8.8 SE 0.0 134.7
07:50 26.5 56.2 1020.2 3.5 ESE 7.8 E 0.0 315.2
07:55 26.7 56.0 1020.3 5.4 ESE 10.2 ESE 0.0 411.5
08:00 26.7 55.4 1020.3 6.4 ESE 11.3 E 0.0 426.6
08:05 26.9 55.6 1020.4 4.2 ESE 7.8 SE 0.0 440.4
08:10 27.1 54.3 1020.4 4.4 E 8.8 ESE 0.0 455.5
08:15 27.2 54.0 1020.4 5.8 ESE 13.1 ESE 0.0 468.5
08:20 27.3 53.2 1020.5 7.4 ESE 12.7 SE 0.0 481.3
08:25 27.4 52.6 1020.5 7.2 ESE 11.6 ESE 0.0 492.8
08:30 27.6 52.2 1020.6 3.3 E 7.1 E 0.0 506.3
08:35 27.5 50.0 1020.6 6.5 ENE 11.3 ESE 0.0 485.3
08:40 27.8 49.8 1020.6 5.3 ESE 15.5 ESE 0.0 532.0
08:45 28.3 46.7 1020.7 7.1 E 10.9 NNE 0.0 544.2
08:50 28.5 46.3 1020.7 6.6 E 11.6 E 0.0 556.8
08:55 28.8 46.3 1020.8 6.0 ESE 11.3 E 0.0 567.5
09:00 29.2 43.5 1020.8 7.4 E 15.9 E 0.0 581.0
09:05 29.0 42.0 1020.8 5.3 ENE 12.0 E 0.0 590.3
09:10 29.2 42.1 1020.8 4.9 ENE 10.2 E 0.0 600.7
09:15 29.4 41.9 1020.8 7.1 E 15.5 ESE 0.0 615.1
09:20 29.5 40.6 1020.8 6.8 ESE 15.9 ESE 0.0 621.8
09:25 29.6 40.3 1020.8 5.1 NE 14.5 ENE 0.0 631.5
09:30 30.0 36.4 1020.8 5.9 E 14.1 ESE 0.0 644.3
09:35 30.1 31.9 1020.8 7.7 ESE 16.9 E 0.0 654.3
09:40 30.5 34.3 1020.8 6.1 ESE 16.6 ESE 0.0 664.4
09:45 30.8 34.0 1020.9 5.7 E 12.0 ESE 0.0 673.0
09:50 31.1 32.7 1020.8 8.0 SE 12.7 SE 0.0 681.6
09:55 30.8 32.5 1020.8 9.9 SE 18.0 S 0.0 690.0
10:00 31.0 32.6 1020.8 7.1 ESE 11.3 ESE 0.0 697.9
10:05 31.0 33.7 1020.8 9.0 SE 14.1 SE 0.0 704.6
10:10 31.1 34.4 1020.9 5.1 SE 10.2 S 0.0 707.9
10:15 31.4 34.1 1020.9 5.6 E 11.3 E 0.0 716.7
10:20 31.2 34.7 1020.9 8.1 SE 14.1 ESE 0.0 725.7
10:25 31.5 35.0 1020.8 8.6 SE 15.5 S 0.0 722.5
10:30 31.5 34.9 1020.8 10.2 SE 15.5 ESE 0.0 734.3
10:35 31.7 35.0 1020.8 7.9 S 13.1 SE 0.0 742.4
10:40 32.0 34.7 1020.8 4.8 S 10.6 SSE 0.0 754.3
10:45 32.3 34.6 1020.7 4.6 SE 10.9 SW 0.0 738.2
10:50 32.3 35.1 1020.7 7.5 S 15.5 S 0.0 741.8
10:55 31.9 37.0 1020.7 10.9 SE 19.8 ESE 0.0 706.4
11:00 31.9 41.1 1020.7 9.8 SE 16.2 S 0.0 764.9
11:05 31.7 41.8 1020.7 12.0 SE 20.1 SE 0.0 760.4
11:10 31.6 42.3 1020.6 12.4 SSE 20.5 SE 0.0 769.9
11:15 31.2 43.2 1020.7 11.9 SSE 19.4 S 0.0 772.4
11:20 31.2 42.9 1020.7 13.3 SE 25.1 SE 0.0 777.5
11:25 31.0 43.5 1020.7 11.6 SSE 20.8 SSE 0.0 739.9
11:30 31.3 42.7 1020.7 8.7 S 16.9 S 0.0 756.2
11:35 31.4 42.8 1020.7 10.2 SSE 20.5 SSE 0.0 778.2
11:40 30.8 43.8 1020.7 11.2 SSE 18.7 SE 0.0 779.3
11:45 30.9 43.8 1020.8 10.7 S 20.8 SSW 0.0 758.7
11:50 31.1 43.5 1020.7 12.0 SE 20.5 SSE 0.0 767.5
11:55 31.0 43.7 1020.7 12.8 SSE 22.6 SSE 0.0 774.9
12:00 30.7 44.1 1020.7 10.4 SSE 19.1 SE 0.0 775.6
12:05 30.7 44.1 1020.7 13.4 SSE 23.6 ESE 0.0 771.9
12:10 31.2 43.6 1020.8 8.3 SSE 15.9 SSW 0.0 770.0
12:15 30.9 43.4 1020.8 13.2 SSE 24.7 SSE 0.0 768.3
Máxima 32.3 91.4 1020.9 13.4 SSE 25.1 SE 0.0 779.3
Mínima 19.2 31.9 1019.0
Total 0.0